sensor_id;sensor_type;location;lat;lon;timestamp;P1;durP1;ratioP1;P2;durP2;ratioP2
45730;SDS011;31440;48.584;13.460;2022-09-29T00:01:44;6.75;;;5.22;;
45730;SDS011;31440;48.584;13.460;2022-09-29T00:04:10;6.60;;;5.25;;
45730;SDS011;31440;48.584;13.460;2022-09-29T00:06:36;6.30;;;5.25;;
45730;SDS011;31440;48.584;13.460;2022-09-29T00:09:01;5.97;;;4.00;;
45730;SDS011;31440;48.584;13.460;2022-09-29T00:11:27;7.57;;;4.68;;
45730;SDS011;31440;48.584;13.460;2022-09-29T00:13:53;7.50;;;4.47;;
45730;SDS011;31440;48.584;13.460;2022-09-29T00:16:19;6.07;;;4.57;;
45730;SDS011;31440;48.584;13.460;2022-09-29T00:18:44;5.95;;;4.20;;
45730;SDS011;31440;48.584;13.460;2022-09-29T00:21:12;6.18;;;4.55;;
45730;SDS011;31440;48.584;13.460;2022-09-29T00:23:39;5.78;;;4.38;;
45730;SDS011;31440;48.584;13.460;2022-09-29T00:26:09;8.52;;;4.97;;
45730;SDS011;31440;48.584;13.460;2022-09-29T00:28:40;7.50;;;4.70;;
45730;SDS011;31440;48.584;13.460;2022-09-29T00:31:10;5.88;;;4.25;;
45730;SDS011;31440;48.584;13.460;2022-09-29T00:33:36;5.57;;;4.65;;
45730;SDS011;31440;48.584;13.460;2022-09-29T00:36:03;5.80;;;4.10;;
45730;SDS011;31440;48.584;13.460;2022-09-29T00:38:31;4.38;;;3.40;;
45730;SDS011;31440;48.584;13.460;2022-09-29T00:40:57;4.88;;;2.97;;
45730;SDS011;31440;48.584;13.460;2022-09-29T00:46:11;4.05;;;3.22;;
45730;SDS011;31440;48.584;13.460;2022-09-29T00:48:38;6.28;;;2.95;;
45730;SDS011;31440;48.584;13.460;2022-09-29T00:51:05;3.38;;;2.70;;
45730;SDS011;31440;48.584;13.460;2022-09-29T00:53:31;3.60;;;2.63;;
45730;SDS011;31440;48.584;13.460;2022-09-29T00:55:59;3.97;;;3.15;;
45730;SDS011;31440;48.584;13.460;2022-09-29T00:58:33;4.43;;;3.72;;
45730;SDS011;31440;48.584;13.460;2022-09-29T01:01:05;8.15;;;4.20;;
45730;SDS011;31440;48.584;13.460;2022-09-29T01:03:32;7.38;;;4.03;;
45730;SDS011;31440;48.584;13.460;2022-09-29T01:06:09;6.50;;;4.95;;
45730;SDS011;31440;48.584;13.460;2022-09-29T01:08:40;7.10;;;4.60;;
45730;SDS011;31440;48.584;13.460;2022-09-29T01:11:10;8.03;;;4.77;;
45730;SDS011;31440;48.584;13.460;2022-09-29T01:13:37;5.40;;;4.57;;
45730;SDS011;31440;48.584;13.460;2022-09-29T01:16:04;6.07;;;5.07;;
45730;SDS011;31440;48.584;13.460;2022-09-29T01:18:29;6.75;;;5.32;;
45730;SDS011;31440;48.584;13.460;2022-09-29T01:21:00;8.05;;;5.85;;
45730;SDS011;31440;48.584;13.460;2022-09-29T01:31:57;5.68;;;4.78;;
45730;SDS011;31440;48.584;13.460;2022-09-29T01:37:20;7.90;;;4.80;;
45730;SDS011;31440;48.584;13.460;2022-09-29T01:39:52;5.55;;;4.78;;
45730;SDS011;31440;48.584;13.460;2022-09-29T01:42:28;6.90;;;5.32;;
45730;SDS011;31440;48.584;13.460;2022-09-29T01:47:57;6.90;;;5.32;;
45730;SDS011;31440;48.584;13.460;2022-09-29T01:50:27;6.78;;;4.32;;
45730;SDS011;31440;48.584;13.460;2022-09-29T01:52:59;6.68;;;3.78;;
45730;SDS011;31440;48.584;13.460;2022-09-29T01:55:31;4.63;;;3.97;;
45730;SDS011;31440;48.584;13.460;2022-09-29T01:58:06;5.55;;;3.70;;
45730;SDS011;31440;48.584;13.460;2022-09-29T02:00:38;5.90;;;3.85;;
45730;SDS011;31440;48.584;13.460;2022-09-29T02:03:12;4.43;;;3.15;;
45730;SDS011;31440;48.584;13.460;2022-09-29T02:08:16;6.03;;;3.25;;
45730;SDS011;31440;48.584;13.460;2022-09-29T02:10:50;5.97;;;4.20;;
45730;SDS011;31440;48.584;13.460;2022-09-29T02:13:23;4.40;;;3.47;;
45730;SDS011;31440;48.584;13.460;2022-09-29T02:15:50;3.85;;;2.95;;
45730;SDS011;31440;48.584;13.460;2022-09-29T02:18:22;4.85;;;3.67;;
45730;SDS011;31440;48.584;13.460;2022-09-29T02:20:50;3.65;;;3.30;;
45730;SDS011;31440;48.584;13.460;2022-09-29T02:23:16;4.78;;;3.63;;
45730;SDS011;31440;48.584;13.460;2022-09-29T02:25:42;4.38;;;3.35;;
45730;SDS011;31440;48.584;13.460;2022-09-29T02:28:09;5.50;;;3.28;;
45730;SDS011;31440;48.584;13.460;2022-09-29T02:30:35;5.22;;;3.15;;
45730;SDS011;31440;48.584;13.460;2022-09-29T02:33:00;5.45;;;3.58;;
45730;SDS011;31440;48.584;13.460;2022-09-29T02:36:06;4.90;;;3.28;;
45730;SDS011;31440;48.584;13.460;2022-09-29T02:38:42;5.00;;;3.30;;
45730;SDS011;31440;48.584;13.460;2022-09-29T02:58:58;5.35;;;3.50;;
45730;SDS011;31440;48.584;13.460;2022-09-29T03:01:32;4.63;;;3.70;;
45730;SDS011;31440;48.584;13.460;2022-09-29T03:03:59;4.05;;;3.50;;
45730;SDS011;31440;48.584;13.460;2022-09-29T03:06:25;5.72;;;4.70;;
45730;SDS011;31440;48.584;13.460;2022-09-29T03:08:51;8.57;;;5.30;;
45730;SDS011;31440;48.584;13.460;2022-09-29T03:11:16;7.38;;;5.55;;
45730;SDS011;31440;48.584;13.460;2022-09-29T03:13:42;6.85;;;4.95;;
45730;SDS011;31440;48.584;13.460;2022-09-29T03:16:08;6.00;;;4.82;;
45730;SDS011;31440;48.584;13.460;2022-09-29T03:18:33;6.90;;;4.53;;
45730;SDS011;31440;48.584;13.460;2022-09-29T03:20:59;6.40;;;4.60;;
45730;SDS011;31440;48.584;13.460;2022-09-29T03:23:25;6.10;;;5.28;;
45730;SDS011;31440;48.584;13.460;2022-09-29T03:25:50;8.73;;;4.65;;
45730;SDS011;31440;48.584;13.460;2022-09-29T03:28:16;5.22;;;4.28;;
45730;SDS011;31440;48.584;13.460;2022-09-29T03:30:42;6.68;;;4.57;;
45730;SDS011;31440;48.584;13.460;2022-09-29T03:33:07;7.47;;;5.15;;
45730;SDS011;31440;48.584;13.460;2022-09-29T03:35:33;6.43;;;4.90;;
45730;SDS011;31440;48.584;13.460;2022-09-29T03:38:00;14.73;;;5.53;;
45730;SDS011;31440;48.584;13.460;2022-09-29T03:40:26;6.50;;;5.38;;
45730;SDS011;31440;48.584;13.460;2022-09-29T03:42:52;66.18;;;5.47;;
45730;SDS011;31440;48.584;13.460;2022-09-29T03:45:17;8.20;;;6.15;;
45730;SDS011;31440;48.584;13.460;2022-09-29T03:47:43;8.32;;;6.15;;
45730;SDS011;31440;48.584;13.460;2022-09-29T03:50:09;10.27;;;5.95;;
45730;SDS011;31440;48.584;13.460;2022-09-29T03:52:34;7.78;;;6.30;;
45730;SDS011;31440;48.584;13.460;2022-09-29T03:55:00;8.40;;;5.57;;
45730;SDS011;31440;48.584;13.460;2022-09-29T03:57:25;7.43;;;5.13;;
45730;SDS011;31440;48.584;13.460;2022-09-29T03:59:51;5.32;;;4.40;;
45730;SDS011;31440;48.584;13.460;2022-09-29T04:02:17;7.20;;;5.25;;
45730;SDS011;31440;48.584;13.460;2022-09-29T04:04:43;7.97;;;5.40;;
45730;SDS011;31440;48.584;13.460;2022-09-29T04:07:09;6.60;;;5.05;;
45730;SDS011;31440;48.584;13.460;2022-09-29T04:09:35;7.65;;;4.90;;
45730;SDS011;31440;48.584;13.460;2022-09-29T04:12:01;8.07;;;5.28;;
45730;SDS011;31440;48.584;13.460;2022-09-29T04:14:26;10.27;;;5.68;;
45730;SDS011;31440;48.584;13.460;2022-09-29T04:16:52;7.93;;;5.60;;
45730;SDS011;31440;48.584;13.460;2022-09-29T04:19:17;6.93;;;4.93;;
45730;SDS011;31440;48.584;13.460;2022-09-29T04:21:43;7.22;;;5.53;;
45730;SDS011;31440;48.584;13.460;2022-09-29T04:24:08;7.53;;;5.30;;
45730;SDS011;31440;48.584;13.460;2022-09-29T04:26:34;7.90;;;5.65;;
45730;SDS011;31440;48.584;13.460;2022-09-29T04:29:00;12.82;;;4.90;;
45730;SDS011;31440;48.584;13.460;2022-09-29T04:31:25;42.08;;;5.80;;
45730;SDS011;31440;48.584;13.460;2022-09-29T04:33:51;11.32;;;4.82;;
45730;SDS011;31440;48.584;13.460;2022-09-29T04:36:16;89.50;;;5.90;;
45730;SDS011;31440;48.584;13.460;2022-09-29T04:38:42;9.82;;;3.38;;
45730;SDS011;31440;48.584;13.460;2022-09-29T04:41:07;32.55;;;4.30;;
45730;SDS011;31440;48.584;13.460;2022-09-29T04:43:33;14.43;;;4.50;;
45730;SDS011;31440;48.584;13.460;2022-09-29T04:46:05;10.30;;;3.42;;
45730;SDS011;31440;48.584;13.460;2022-09-29T04:48:32;11.23;;;4.13;;
45730;SDS011;31440;48.584;13.460;2022-09-29T04:50:58;15.00;;;3.70;;
45730;SDS011;31440;48.584;13.460;2022-09-29T04:53:23;10.90;;;4.30;;
45730;SDS011;31440;48.584;13.460;2022-09-29T04:55:49;23.05;;;4.22;;
45730;SDS011;31440;48.584;13.460;2022-09-29T04:58:15;46.67;;;5.18;;
45730;SDS011;31440;48.584;13.460;2022-09-29T05:00:40;19.67;;;6.05;;
45730;SDS011;31440;48.584;13.460;2022-09-29T05:03:06;78.32;;;5.25;;
45730;SDS011;31440;48.584;13.460;2022-09-29T05:05:31;18.30;;;5.40;;
45730;SDS011;31440;48.584;13.460;2022-09-29T05:07:57;109.57;;;8.70;;
45730;SDS011;31440;48.584;13.460;2022-09-29T05:10:26;42.28;;;7.05;;
45730;SDS011;31440;48.584;13.460;2022-09-29T05:12:51;68.32;;;7.13;;
45730;SDS011;31440;48.584;13.460;2022-09-29T05:15:17;61.25;;;6.30;;
45730;SDS011;31440;48.584;13.460;2022-09-29T05:17:43;39.78;;;6.07;;
45730;SDS011;31440;48.584;13.460;2022-09-29T05:20:09;71.28;;;7.10;;
45730;SDS011;31440;48.584;13.460;2022-09-29T05:22:35;98.65;;;7.57;;
45730;SDS011;31440;48.584;13.460;2022-09-29T05:25:02;35.53;;;5.82;;
45730;SDS011;31440;48.584;13.460;2022-09-29T05:27:27;59.58;;;6.20;;
45730;SDS011;31440;48.584;13.460;2022-09-29T05:29:53;38.00;;;4.38;;
45730;SDS011;31440;48.584;13.460;2022-09-29T05:32:18;39.63;;;4.15;;
45730;SDS011;31440;48.584;13.460;2022-09-29T05:34:44;36.38;;;4.18;;
45730;SDS011;31440;48.584;13.460;2022-09-29T05:37:10;16.58;;;4.82;;
45730;SDS011;31440;48.584;13.460;2022-09-29T05:39:35;47.42;;;4.70;;
45730;SDS011;31440;48.584;13.460;2022-09-29T05:42:05;40.38;;;5.35;;
45730;SDS011;31440;48.584;13.460;2022-09-29T05:44:35;60.25;;;6.82;;
45730;SDS011;31440;48.584;13.460;2022-09-29T05:47:00;124.53;;;11.48;;
45730;SDS011;31440;48.584;13.460;2022-09-29T05:49:26;57.45;;;7.97;;
45730;SDS011;31440;48.584;13.460;2022-09-29T05:51:51;92.53;;;8.02;;
45730;SDS011;31440;48.584;13.460;2022-09-29T05:54:17;121.20;;;9.48;;
45730;SDS011;31440;48.584;13.460;2022-09-29T05:56:43;25.30;;;5.15;;
45730;SDS011;31440;48.584;13.460;2022-09-29T05:59:09;40.13;;;5.30;;
45730;SDS011;31440;48.584;13.460;2022-09-29T06:01:34;25.95;;;4.15;;
45730;SDS011;31440;48.584;13.460;2022-09-29T06:04:00;20.60;;;5.07;;
45730;SDS011;31440;48.584;13.460;2022-09-29T06:06:27;21.83;;;4.90;;
45730;SDS011;31440;48.584;13.460;2022-09-29T06:08:53;46.25;;;5.60;;
45730;SDS011;31440;48.584;13.460;2022-09-29T06:11:20;48.40;;;5.60;;
45730;SDS011;31440;48.584;13.460;2022-09-29T06:13:52;89.40;;;7.82;;
45730;SDS011;31440;48.584;13.460;2022-09-29T06:16:20;25.08;;;7.07;;
45730;SDS011;31440;48.584;13.460;2022-09-29T06:18:48;51.15;;;6.90;;
45730;SDS011;31440;48.584;13.460;2022-09-29T06:21:15;37.83;;;6.35;;
45730;SDS011;31440;48.584;13.460;2022-09-29T06:23:46;25.58;;;8.60;;
45730;SDS011;31440;48.584;13.460;2022-09-29T06:26:12;45.10;;;7.30;;
45730;SDS011;31440;48.584;13.460;2022-09-29T06:28:39;19.30;;;6.50;;
45730;SDS011;31440;48.584;13.460;2022-09-29T06:31:05;45.28;;;8.82;;
45730;SDS011;31440;48.584;13.460;2022-09-29T06:33:36;40.08;;;7.63;;
45730;SDS011;31440;48.584;13.460;2022-09-29T06:36:03;133.85;;;12.75;;
45730;SDS011;31440;48.584;13.460;2022-09-29T06:38:53;29.35;;;8.57;;
45730;SDS011;31440;48.584;13.460;2022-09-29T06:41:19;147.57;;;15.18;;
45730;SDS011;31440;48.584;13.460;2022-09-29T06:43:45;253.50;;;21.05;;
45730;SDS011;31440;48.584;13.460;2022-09-29T06:46:10;16.50;;;9.10;;
45730;SDS011;31440;48.584;13.460;2022-09-29T06:48:36;124.38;;;16.33;;
45730;SDS011;31440;48.584;13.460;2022-09-29T06:51:05;35.28;;;9.73;;
45730;SDS011;31440;48.584;13.460;2022-09-29T06:53:31;28.73;;;7.95;;
45730;SDS011;31440;48.584;13.460;2022-09-29T06:55:57;22.58;;;10.07;;
45730;SDS011;31440;48.584;13.460;2022-09-29T06:58:24;16.00;;;10.30;;
45730;SDS011;31440;48.584;13.460;2022-09-29T07:00:50;15.27;;;9.65;;
45730;SDS011;31440;48.584;13.460;2022-09-29T07:03:16;57.08;;;10.75;;
45730;SDS011;31440;48.584;13.460;2022-09-29T07:05:41;12.23;;;7.65;;
45730;SDS011;31440;48.584;13.460;2022-09-29T07:08:08;11.85;;;8.43;;
45730;SDS011;31440;48.584;13.460;2022-09-29T07:10:33;15.25;;;9.77;;
45730;SDS011;31440;48.584;13.460;2022-09-29T07:12:59;11.55;;;8.40;;
45730;SDS011;31440;48.584;13.460;2022-09-29T07:15:25;23.77;;;9.80;;
45730;SDS011;31440;48.584;13.460;2022-09-29T07:17:57;13.52;;;8.32;;
45730;SDS011;31440;48.584;13.460;2022-09-29T07:20:24;11.65;;;8.30;;
45730;SDS011;31440;48.584;13.460;2022-09-29T07:22:50;152.68;;;15.18;;
45730;SDS011;31440;48.584;13.460;2022-09-29T07:25:16;10.75;;;7.25;;
45730;SDS011;31440;48.584;13.460;2022-09-29T07:27:42;11.38;;;8.55;;
45730;SDS011;31440;48.584;13.460;2022-09-29T07:30:09;11.38;;;7.60;;
45730;SDS011;31440;48.584;13.460;2022-09-29T07:32:35;8.23;;;6.93;;
45730;SDS011;31440;48.584;13.460;2022-09-29T07:35:00;11.15;;;6.97;;
45730;SDS011;31440;48.584;13.460;2022-09-29T07:37:26;8.77;;;6.40;;
45730;SDS011;31440;48.584;13.460;2022-09-29T07:39:52;10.38;;;6.85;;
45730;SDS011;31440;48.584;13.460;2022-09-29T07:42:18;9.60;;;6.35;;
45730;SDS011;31440;48.584;13.460;2022-09-29T07:44:53;8.93;;;6.45;;
45730;SDS011;31440;48.584;13.460;2022-09-29T07:47:19;7.45;;;5.65;;
45730;SDS011;31440;48.584;13.460;2022-09-29T07:49:45;6.63;;;4.90;;
45730;SDS011;31440;48.584;13.460;2022-09-29T07:52:11;6.63;;;5.55;;
45730;SDS011;31440;48.584;13.460;2022-09-29T07:54:38;5.95;;;4.78;;
45730;SDS011;31440;48.584;13.460;2022-09-29T07:57:03;5.72;;;4.40;;
45730;SDS011;31440;48.584;13.460;2022-09-29T07:59:29;5.60;;;4.50;;
45730;SDS011;31440;48.584;13.460;2022-09-29T08:01:54;4.75;;;4.22;;
45730;SDS011;31440;48.584;13.460;2022-09-29T08:04:20;6.55;;;3.97;;
45730;SDS011;31440;48.584;13.460;2022-09-29T08:06:46;7.97;;;4.78;;
45730;SDS011;31440;48.584;13.460;2022-09-29T08:09:12;5.93;;;4.75;;
45730;SDS011;31440;48.584;13.460;2022-09-29T08:11:39;5.35;;;4.28;;
45730;SDS011;31440;48.584;13.460;2022-09-29T08:14:06;6.15;;;5.03;;
45730;SDS011;31440;48.584;13.460;2022-09-29T08:16:32;5.57;;;4.80;;
45730;SDS011;31440;48.584;13.460;2022-09-29T08:18:59;4.97;;;3.90;;
45730;SDS011;31440;48.584;13.460;2022-09-29T08:21:25;5.22;;;3.92;;
45730;SDS011;31440;48.584;13.460;2022-09-29T08:23:52;8.77;;;4.85;;
45730;SDS011;31440;48.584;13.460;2022-09-29T08:26:19;3.95;;;3.28;;
45730;SDS011;31440;48.584;13.460;2022-09-29T08:28:46;5.03;;;3.78;;
45730;SDS011;31440;48.584;13.460;2022-09-29T08:31:13;3.65;;;3.22;;
45730;SDS011;31440;48.584;13.460;2022-09-29T08:33:44;2.85;;;2.60;;
45730;SDS011;31440;48.584;13.460;2022-09-29T08:36:12;3.05;;;2.75;;
45730;SDS011;31440;48.584;13.460;2022-09-29T08:38:41;3.67;;;2.92;;
45730;SDS011;31440;48.584;13.460;2022-09-29T08:41:27;2.38;;;2.17;;
45730;SDS011;31440;48.584;13.460;2022-09-29T08:43:58;2.72;;;1.90;;
45730;SDS011;31440;48.584;13.460;2022-09-29T08:46:30;4.15;;;2.33;;
45730;SDS011;31440;48.584;13.460;2022-09-29T08:49:10;4.50;;;2.95;;
45730;SDS011;31440;48.584;13.460;2022-09-29T08:51:50;3.13;;;2.25;;
45730;SDS011;31440;48.584;13.460;2022-09-29T08:54:38;2.45;;;1.40;;
45730;SDS011;31440;48.584;13.460;2022-09-29T08:57:11;1.70;;;1.58;;
45730;SDS011;31440;48.584;13.460;2022-09-29T08:59:51;1.63;;;1.52;;
45730;SDS011;31440;48.584;13.460;2022-09-29T09:13:03;2.88;;;1.35;;
45730;SDS011;31440;48.584;13.460;2022-09-29T09:15:48;1.33;;;0.90;;
45730;SDS011;31440;48.584;13.460;2022-09-29T09:18:23;2.35;;;1.00;;
45730;SDS011;31440;48.584;13.460;2022-09-29T09:21:46;1.15;;;1.08;;
45730;SDS011;31440;48.584;13.460;2022-09-29T09:26:48;0.80;;;0.80;;
45730;SDS011;31440;48.584;13.460;2022-09-29T09:29:19;0.90;;;0.88;;
45730;SDS011;31440;48.584;13.460;2022-09-29T09:34:33;1.33;;;0.80;;
45730;SDS011;31440;48.584;13.460;2022-09-29T09:39:46;1.10;;;0.63;;
45730;SDS011;31440;48.584;13.460;2022-09-29T09:42:22;2.10;;;0.60;;
45730;SDS011;31440;48.584;13.460;2022-09-29T09:44:53;0.88;;;0.50;;
45730;SDS011;31440;48.584;13.460;2022-09-29T09:47:39;0.73;;;0.73;;
45730;SDS011;31440;48.584;13.460;2022-09-29T09:50:14;2.15;;;0.75;;
45730;SDS011;31440;48.584;13.460;2022-09-29T09:52:46;1.10;;;0.80;;
45730;SDS011;31440;48.584;13.460;2022-09-29T09:55:20;2.15;;;0.98;;
45730;SDS011;31440;48.584;13.460;2022-09-29T10:00:25;3.47;;;0.77;;
45730;SDS011;31440;48.584;13.460;2022-09-29T10:02:56;1.02;;;0.80;;
45730;SDS011;31440;48.584;13.460;2022-09-29T10:05:36;1.35;;;0.63;;
45730;SDS011;31440;48.584;13.460;2022-09-29T10:08:05;0.82;;;0.82;;
45730;SDS011;31440;48.584;13.460;2022-09-29T10:10:34;4.50;;;0.75;;
45730;SDS011;31440;48.584;13.460;2022-09-29T10:13:10;2.47;;;1.10;;
45730;SDS011;31440;48.584;13.460;2022-09-29T10:18:13;2.63;;;1.10;;
45730;SDS011;31440;48.584;13.460;2022-09-29T10:20:43;2.67;;;0.82;;
45730;SDS011;31440;48.584;13.460;2022-09-29T10:25:48;3.25;;;0.77;;
45730;SDS011;31440;48.584;13.460;2022-09-29T10:28:16;1.00;;;0.60;;
45730;SDS011;31440;48.584;13.460;2022-09-29T10:30:42;0.80;;;0.80;;
45730;SDS011;31440;48.584;13.460;2022-09-29T10:33:12;1.55;;;0.73;;
45730;SDS011;31440;48.584;13.460;2022-09-29T10:35:40;0.98;;;0.88;;
45730;SDS011;31440;48.584;13.460;2022-09-29T10:38:15;1.02;;;1.00;;
45730;SDS011;31440;48.584;13.460;2022-09-29T10:40:54;0.63;;;0.60;;
45730;SDS011;31440;48.584;13.460;2022-09-29T10:43:24;1.00;;;0.85;;
45730;SDS011;31440;48.584;13.460;2022-09-29T10:45:51;0.90;;;0.90;;
45730;SDS011;31440;48.584;13.460;2022-09-29T10:48:22;1.23;;;1.10;;
45730;SDS011;31440;48.584;13.460;2022-09-29T10:50:51;1.58;;;1.10;;
45730;SDS011;31440;48.584;13.460;2022-09-29T10:55:58;1.95;;;0.95;;
45730;SDS011;31440;48.584;13.460;2022-09-29T11:01:06;1.40;;;0.80;;
45730;SDS011;31440;48.584;13.460;2022-09-29T11:03:35;0.77;;;0.77;;
45730;SDS011;31440;48.584;13.460;2022-09-29T11:06:05;1.65;;;1.05;;
45730;SDS011;31440;48.584;13.460;2022-09-29T11:08:52;0.95;;;0.88;;
45730;SDS011;31440;48.584;13.460;2022-09-29T11:11:24;1.60;;;0.80;;
45730;SDS011;31440;48.584;13.460;2022-09-29T11:14:01;1.13;;;1.05;;
45730;SDS011;31440;48.584;13.460;2022-09-29T11:16:31;3.13;;;1.08;;
45730;SDS011;31440;48.584;13.460;2022-09-29T11:27:30;2.15;;;0.75;;
45730;SDS011;31440;48.584;13.460;2022-09-29T11:38:00;1.23;;;0.90;;
45730;SDS011;31440;48.584;13.460;2022-09-29T11:40:45;0.70;;;0.70;;
45730;SDS011;31440;48.584;13.460;2022-09-29T11:46:15;1.48;;;1.08;;
45730;SDS011;31440;48.584;13.460;2022-09-29T11:57:42;1.58;;;0.88;;
45730;SDS011;31440;48.584;13.460;2022-09-29T12:00:17;2.63;;;1.13;;
45730;SDS011;31440;48.584;13.460;2022-09-29T12:02:52;1.85;;;0.98;;
45730;SDS011;31440;48.584;13.460;2022-09-29T12:08:29;2.28;;;0.77;;
45730;SDS011;31440;48.584;13.460;2022-09-29T12:13:57;1.40;;;1.10;;
45730;SDS011;31440;48.584;13.460;2022-09-29T12:16:36;1.60;;;1.20;;
45730;SDS011;31440;48.584;13.460;2022-09-29T12:19:10;4.97;;;1.58;;
45730;SDS011;31440;48.584;13.460;2022-09-29T12:21:41;2.25;;;1.20;;
45730;SDS011;31440;48.584;13.460;2022-09-29T12:24:13;2.25;;;1.02;;
45730;SDS011;31440;48.584;13.460;2022-09-29T12:26:43;1.83;;;1.08;;
45730;SDS011;31440;48.584;13.460;2022-09-29T12:31:46;1.42;;;1.20;;
45730;SDS011;31440;48.584;13.460;2022-09-29T12:34:21;1.95;;;1.02;;
45730;SDS011;31440;48.584;13.460;2022-09-29T12:39:38;1.20;;;1.10;;
45730;SDS011;31440;48.584;13.460;2022-09-29T12:42:25;2.30;;;1.05;;
45730;SDS011;31440;48.584;13.460;2022-09-29T12:48:16;2.15;;;1.33;;
45730;SDS011;31440;48.584;13.460;2022-09-29T12:56:21;0.93;;;0.90;;
45730;SDS011;31440;48.584;13.460;2022-09-29T12:58:52;2.58;;;1.20;;
45730;SDS011;31440;48.584;13.460;2022-09-29T13:01:24;2.10;;;1.20;;
45730;SDS011;31440;48.584;13.460;2022-09-29T13:06:52;3.80;;;1.20;;
45730;SDS011;31440;48.584;13.460;2022-09-29T13:09:43;2.22;;;1.30;;
45730;SDS011;31440;48.584;13.460;2022-09-29T13:12:47;3.80;;;1.10;;
45730;SDS011;31440;48.584;13.460;2022-09-29T13:26:58;2.45;;;1.48;;
45730;SDS011;31440;48.584;13.460;2022-09-29T13:29:26;3.22;;;1.23;;
45730;SDS011;31440;48.584;13.460;2022-09-29T13:31:54;5.25;;;1.38;;
45730;SDS011;31440;48.584;13.460;2022-09-29T13:34:27;4.63;;;1.10;;
45730;SDS011;31440;48.584;13.460;2022-09-29T13:37:15;2.40;;;1.45;;
45730;SDS011;31440;48.584;13.460;2022-09-29T13:39:50;2.00;;;1.08;;
45730;SDS011;31440;48.584;13.460;2022-09-29T13:42:24;2.17;;;1.30;;
45730;SDS011;31440;48.584;13.460;2022-09-29T13:47:43;1.45;;;1.33;;
45730;SDS011;31440;48.584;13.460;2022-09-29T13:58:33;1.33;;;1.00;;
45730;SDS011;31440;48.584;13.460;2022-09-29T14:01:12;1.58;;;1.02;;
45730;SDS011;31440;48.584;13.460;2022-09-29T14:03:56;1.30;;;0.85;;
45730;SDS011;31440;48.584;13.460;2022-09-29T14:06:23;1.75;;;1.35;;
45730;SDS011;31440;48.584;13.460;2022-09-29T14:11:40;2.05;;;1.67;;
45730;SDS011;31440;48.584;13.460;2022-09-29T14:14:15;3.15;;;1.10;;
45730;SDS011;31440;48.584;13.460;2022-09-29T14:27:41;1.92;;;1.35;;
45730;SDS011;31440;48.584;13.460;2022-09-29T14:30:15;3.25;;;2.17;;
45730;SDS011;31440;48.584;13.460;2022-09-29T14:35:32;3.88;;;1.90;;
45730;SDS011;31440;48.584;13.460;2022-09-29T14:38:00;4.10;;;1.83;;
45730;SDS011;31440;48.584;13.460;2022-09-29T14:40:26;2.22;;;1.65;;
45730;SDS011;31440;48.584;13.460;2022-09-29T14:43:07;3.38;;;1.58;;
45730;SDS011;31440;48.584;13.460;2022-09-29T14:45:40;1.88;;;1.73;;
45730;SDS011;31440;48.584;13.460;2022-09-29T14:51:55;3.67;;;2.42;;
45730;SDS011;31440;48.584;13.460;2022-09-29T14:54:31;2.63;;;1.85;;
45730;SDS011;31440;48.584;13.460;2022-09-29T15:02:35;3.92;;;2.35;;
45730;SDS011;31440;48.584;13.460;2022-09-29T15:05:10;4.55;;;2.60;;
45730;SDS011;31440;48.584;13.460;2022-09-29T15:07:55;4.55;;;2.22;;
45730;SDS011;31440;48.584;13.460;2022-09-29T15:10:23;3.28;;;2.30;;
45730;SDS011;31440;48.584;13.460;2022-09-29T15:15:45;4.93;;;2.40;;
45730;SDS011;31440;48.584;13.460;2022-09-29T15:18:16;3.20;;;2.22;;
45730;SDS011;31440;48.584;13.460;2022-09-29T15:23:32;4.70;;;2.50;;
45730;SDS011;31440;48.584;13.460;2022-09-29T15:26:12;3.60;;;2.50;;
45730;SDS011;31440;48.584;13.460;2022-09-29T15:28:39;4.63;;;2.30;;
45730;SDS011;31440;48.584;13.460;2022-09-29T15:31:10;3.65;;;2.70;;
45730;SDS011;31440;48.584;13.460;2022-09-29T15:33:41;6.00;;;2.97;;
45730;SDS011;31440;48.584;13.460;2022-09-29T15:36:20;5.10;;;2.60;;
45730;SDS011;31440;48.584;13.460;2022-09-29T15:38:50;3.90;;;2.80;;
45730;SDS011;31440;48.584;13.460;2022-09-29T15:41:18;4.60;;;2.80;;
45730;SDS011;31440;48.584;13.460;2022-09-29T15:43:51;10.00;;;8.05;;
45730;SDS011;31440;48.584;13.460;2022-09-29T15:51:28;2.67;;;2.45;;
45730;SDS011;31440;48.584;13.460;2022-09-29T15:53:54;4.78;;;3.25;;
45730;SDS011;31440;48.584;13.460;2022-09-29T15:56:20;4.13;;;2.88;;
45730;SDS011;31440;48.584;13.460;2022-09-29T15:58:46;4.13;;;2.33;;
45730;SDS011;31440;48.584;13.460;2022-09-29T16:01:12;3.60;;;2.40;;
45730;SDS011;31440;48.584;13.460;2022-09-29T16:03:56;3.85;;;3.03;;
45730;SDS011;31440;48.584;13.460;2022-09-29T16:09:00;7.78;;;3.05;;
45730;SDS011;31440;48.584;13.460;2022-09-29T16:11:35;5.30;;;3.22;;
45730;SDS011;31440;48.584;13.460;2022-09-29T16:14:05;3.13;;;2.83;;
45730;SDS011;31440;48.584;13.460;2022-09-29T16:16:35;5.93;;;3.58;;
45730;SDS011;31440;48.584;13.460;2022-09-29T16:19:12;3.55;;;2.80;;
45730;SDS011;31440;48.584;13.460;2022-09-29T16:21:42;5.22;;;2.60;;
45730;SDS011;31440;48.584;13.460;2022-09-29T16:24:16;3.03;;;2.45;;
45730;SDS011;31440;48.584;13.460;2022-09-29T16:31:42;6.50;;;2.88;;
45730;SDS011;31440;48.584;13.460;2022-09-29T16:36:57;3.30;;;2.95;;
45730;SDS011;31440;48.584;13.460;2022-09-29T16:39:25;3.78;;;2.90;;
45730;SDS011;31440;48.584;13.460;2022-09-29T16:41:53;2.67;;;2.47;;
45730;SDS011;31440;48.584;13.460;2022-09-29T16:44:31;3.88;;;3.13;;
45730;SDS011;31440;48.584;13.460;2022-09-29T16:49:35;4.45;;;3.08;;
45730;SDS011;31440;48.584;13.460;2022-09-29T16:54:44;4.53;;;2.60;;
45730;SDS011;31440;48.584;13.460;2022-09-29T16:57:19;6.53;;;3.35;;
45730;SDS011;31440;48.584;13.460;2022-09-29T16:59:54;5.00;;;4.25;;
45730;SDS011;31440;48.584;13.460;2022-09-29T17:02:21;4.82;;;3.17;;
45730;SDS011;31440;48.584;13.460;2022-09-29T17:04:51;3.97;;;3.58;;
45730;SDS011;31440;48.584;13.460;2022-09-29T17:07:19;7.47;;;5.47;;
45730;SDS011;31440;48.584;13.460;2022-09-29T17:09:46;5.35;;;4.38;;
45730;SDS011;31440;48.584;13.460;2022-09-29T17:12:15;4.32;;;3.53;;
45730;SDS011;31440;48.584;13.460;2022-09-29T17:14:41;13.23;;;7.75;;
45730;SDS011;31440;48.584;13.460;2022-09-29T17:17:16;7.60;;;4.38;;
45730;SDS011;31440;48.584;13.460;2022-09-29T17:19:44;6.10;;;3.58;;
45730;SDS011;31440;48.584;13.460;2022-09-29T17:22:19;5.90;;;3.53;;
45730;SDS011;31440;48.584;13.460;2022-09-29T17:24:46;4.90;;;3.90;;
45730;SDS011;31440;48.584;13.460;2022-09-29T17:27:12;8.57;;;4.13;;
45730;SDS011;31440;48.584;13.460;2022-09-29T17:29:56;5.00;;;3.58;;
45730;SDS011;31440;48.584;13.460;2022-09-29T17:32:21;15.10;;;4.22;;
45730;SDS011;31440;48.584;13.460;2022-09-29T17:34:48;3.95;;;3.47;;
45730;SDS011;31440;48.584;13.460;2022-09-29T17:37:13;5.20;;;4.43;;
45730;SDS011;31440;48.584;13.460;2022-09-29T17:39:44;7.85;;;3.90;;
45730;SDS011;31440;48.584;13.460;2022-09-29T17:42:09;7.82;;;4.40;;
45730;SDS011;31440;48.584;13.460;2022-09-29T17:44:35;4.70;;;3.65;;
45730;SDS011;31440;48.584;13.460;2022-09-29T17:47:03;4.78;;;3.92;;
45730;SDS011;31440;48.584;13.460;2022-09-29T17:49:29;7.10;;;4.65;;
45730;SDS011;31440;48.584;13.460;2022-09-29T17:51:55;5.13;;;3.60;;
45730;SDS011;31440;48.584;13.460;2022-09-29T17:54:20;6.20;;;4.60;;
45730;SDS011;31440;48.584;13.460;2022-09-29T17:56:51;5.75;;;3.50;;
45730;SDS011;31440;48.584;13.460;2022-09-29T17:59:17;5.28;;;4.50;;
45730;SDS011;31440;48.584;13.460;2022-09-29T18:01:42;6.70;;;5.35;;